Time;durP1;ratioP1;P1;durP2;ratioP2;P2;SDS_P1;SDS_P2;PMS_P1;PMS_P2;Temp;Humidity;BMP_temperature;BMP_pressure;BME280_temperature;BME280_humidity;BME280_pressure;Samples;Min_cycle;Max_cycle;Signal;HPM_P1;HPM_P2
2023/05/27 00:01:45;;;;;;;6.57;1.45;;;;;;;12.01;64.69;103086.56;5098759;27;99632;-27
2023/05/27 00:04:11;;;;;;;3.53;1.13;;;;;;;12.00;65.40;103087.53;5098320;27;99138;-29
2023/05/27 00:06:36;;;;;;;3.13;0.95;;;;;;;11.94;63.78;103093.13;5099241;27;96705;-28
2023/05/27 00:09:02;;;;;;;3.90;1.48;;;;;;;11.87;64.60;103093.34;5099228;27;96832;-28
2023/05/27 00:11:27;;;;;;;6.65;1.17;;;;;;;11.83;64.27;103085.31;5098539;27;99437;-28
2023/05/27 00:13:53;;;;;;;6.22;1.52;;;;;;;11.81;64.30;103079.91;5098467;27;97784;-28
2023/05/27 00:16:19;;;;;;;4.60;1.55;;;;;;;11.68;63.97;103083.94;5098706;27;96782;-29
2023/05/27 00:18:45;;;;;;;5.50;1.33;;;;;;;11.53;64.88;103070.81;5080172;27;96917;-28
2023/05/27 00:21:10;;;;;;;8.23;1.33;;;;;;;11.50;64.48;103076.34;5098626;27;97640;-28
2023/05/27 00:23:36;;;;;;;5.85;1.40;;;;;;;11.43;65.27;103075.63;5098380;27;99361;-28
2023/05/27 00:26:01;;;;;;;7.47;1.50;;;;;;;11.44;65.88;103078.31;5098744;27;96684;-29
2023/05/27 00:28:28;;;;;;;7.25;1.20;;;;;;;11.43;65.49;103065.66;5098655;27;96830;-28
2023/05/27 00:30:54;;;;;;;1.90;0.77;;;;;;;11.49;65.53;103067.31;5098200;27;99986;-28
2023/05/27 00:33:21;;;;;;;1.52;0.85;;;;;;;11.47;65.59;103058.34;5098088;27;99286;-28
2023/05/27 00:35:46;;;;;;;3.13;0.98;;;;;;;11.43;66.12;103053.94;5080004;27;96881;-28
2023/05/27 00:38:11;;;;;;;2.13;0.68;;;;;;;11.46;66.10;103056.53;5098684;27;96486;-28
2023/05/27 00:40:39;;;;;;;4.13;1.75;;;;;;;11.34;66.11;103046.94;5097770;27;97332;-28
2023/05/27 00:43:05;;;;;;;1.55;1.02;;;;;;;11.35;65.31;103059.59;5079489;27;101081;-29
2023/05/27 00:45:30;;;;;;;3.08;1.25;;;;;;;11.26;65.44;103047.16;5098526;27;96620;-28
2023/05/27 00:47:56;;;;;;;4.22;1.27;;;;;;;11.29;65.77;103054.31;5098325;27;96806;-28
2023/05/27 00:50:25;;;;;;;4.35;1.30;;;;;;;11.31;65.37;103057.00;5079453;27;101837;-29
2023/05/27 00:52:50;;;;;;;4.55;1.42;;;;;;;11.27;65.79;103058.91;5079429;27;101200;-28
2023/05/27 00:55:16;;;;;;;1.77;1.30;;;;;;;11.18;66.33;103054.66;5098190;27;96523;-28
2023/05/27 00:57:42;;;;;;;1.77;1.13;;;;;;;11.14;66.62;103060.22;5098895;27;96852;-28
2023/05/27 01:00:11;;;;;;;5.10;1.10;;;;;;;11.07;66.02;103056.78;5079202;27;99104;-29
2023/05/27 01:02:40;;;;;;;3.63;1.30;;;;;;;11.00;66.82;103055.16;5079083;27;101019;-28
2023/05/27 01:05:06;;;;;;;2.55;1.23;;;;;;;11.02;66.73;103062.31;5079085;27;96669;-27
2023/05/27 01:08:07;;;;;;;1.63;0.77;;;;;;;11.11;66.81;103071.13;5079327;27;96645;-28
2023/05/27 01:10:50;;;;;;;2.53;1.00;;;;;;;11.03;66.23;103052.34;5086029;27;98078;-28
2023/05/27 01:13:31;;;;;;;1.77;0.55;;;;;;;10.97;67.01;103045.28;5078373;27;101183;-28
2023/05/27 01:16:01;;;;;;;2.58;1.23;;;;;;;11.02;66.86;103048.75;5079455;27;96576;-28
2023/05/27 01:18:29;;;;;;;4.15;1.33;;;;;;;11.03;66.58;103057.78;5079367;27;96837;-28
2023/05/27 01:21:02;;;;;;;3.42;1.25;;;;;;;11.01;66.63;103059.63;5078938;27;99868;-29
2023/05/27 01:23:28;;;;;;;2.35;0.95;;;;;;;10.96;67.30;103054.34;5079257;27;100828;-28
2023/05/27 01:25:54;;;;;;;3.80;1.27;;;;;;;10.99;67.37;103057.00;5079240;27;96641;-28
2023/05/27 01:28:19;;;;;;;2.45;0.98;;;;;;;10.91;66.42;103050.88;5098413;27;96782;-28
2023/05/27 01:30:45;;;;;;;3.92;1.00;;;;;;;10.82;66.91;103046.63;5097049;27;97890;-28
2023/05/27 01:33:19;;;;;;;3.25;0.93;;;;;;;10.84;67.21;103050.19;5096914;27;99186;-28
2023/05/27 01:35:51;;;;;;;2.03;1.00;;;;;;;10.77;67.78;103040.44;5074702;27;96908;-28
2023/05/27 01:38:20;;;;;;;2.63;0.95;;;;;;;10.81;66.51;103052.06;5075752;27;96677;-28
2023/05/27 01:40:47;;;;;;;4.03;1.40;;;;;;;10.79;67.46;103040.38;5075294;27;99887;-28
2023/05/27 01:43:15;;;;;;;2.25;0.98;;;;;;;10.79;67.23;103045.78;5076928;27;97437;-28
2023/05/27 01:45:41;;;;;;;2.13;1.08;;;;;;;10.70;67.51;103033.41;5077014;27;96587;-28
2023/05/27 01:48:07;;;;;;;6.13;1.70;;;;;;;10.70;67.18;103037.91;5077244;27;96886;-28
2023/05/27 01:50:33;;;;;;;4.03;1.40;;;;;;;10.66;67.77;103042.53;5075111;27;101104;-28
2023/05/27 01:52:59;;;;;;;1.52;0.80;;;;;;;10.63;67.76;103040.78;5076609;27;97775;-28
2023/05/27 01:55:25;;;;;;;1.45;0.73;;;;;;;10.60;67.38;103037.25;5074891;27;96654;-28
2023/05/27 01:57:50;;;;;;;2.53;1.42;;;;;;;10.57;67.68;103034.63;5076637;27;96808;-29
2023/05/27 02:00:16;;;;;;;1.55;0.70;;;;;;;10.57;67.91;103046.38;5076446;27;97915;-28
2023/05/27 02:02:41;;;;;;;1.90;0.85;;;;;;;10.49;68.59;103037.56;5076135;27;99712;-28
2023/05/27 02:05:07;;;;;;;2.97;1.15;;;;;;;10.53;68.16;103038.34;5076488;27;96847;-28
2023/05/27 02:07:32;;;;;;;6.03;0.70;;;;;;;10.52;68.04;103036.59;5076746;27;96803;-28
2023/05/27 02:09:58;;;;;;;4.78;0.90;;;;;;;10.50;67.90;103044.75;5076325;27;98063;-29
2023/05/27 02:12:23;;;;;;;5.18;0.80;;;;;;;10.49;68.12;103048.41;5076742;27;98152;-28
2023/05/27 02:14:49;;;;;;;2.83;0.95;;;;;;;10.38;67.77;103042.34;5076668;27;96570;-28
2023/05/27 02:17:14;;;;;;;3.47;0.98;;;;;;;10.40;68.45;103044.09;5076419;27;96963;-28
2023/05/27 02:19:40;;;;;;;3.30;1.15;;;;;;;10.35;68.89;103050.56;5075445;27;97532;-29
2023/05/27 02:22:06;;;;;;;1.95;0.98;;;;;;;10.31;68.39;103040.72;5074371;27;100960;-28
2023/05/27 02:24:31;;;;;;;4.13;0.90;;;;;;;10.26;67.73;103042.63;5075850;27;96620;-29
2023/05/27 02:26:58;;;;;;;2.28;1.00;;;;;;;10.24;68.83;103050.78;5076386;27;96848;-28
2023/05/27 02:29:23;;;;;;;1.60;0.75;;;;;;;10.20;68.45;103038.25;5075982;27;97950;-28
2023/05/27 02:31:48;;;;;;;2.97;1.00;;;;;;;10.18;68.54;103056.38;5075921;27;98013;-29
2023/05/27 02:34:14;;;;;;;3.25;1.13;;;;;;;10.12;69.29;103037.56;5078183;27;96824;-29
2023/05/27 02:36:40;;;;;;;2.13;0.98;;;;;;;10.13;69.47;103042.94;5078550;27;96700;-28
2023/05/27 02:39:06;;;;;;;1.33;0.77;;;;;;;10.15;69.30;103034.75;5096365;27;101524;-28
2023/05/27 02:41:31;;;;;;;2.28;0.70;;;;;;;10.15;70.27;103034.75;5096469;27;97845;-30
2023/05/27 02:43:56;;;;;;;2.92;1.17;;;;;;;10.16;69.30;103044.69;5095825;27;99280;-28
2023/05/27 02:46:22;;;;;;;1.92;0.98;;;;;;;10.13;69.92;103048.34;5096661;27;96786;-28
2023/05/27 02:48:47;;;;;;;1.40;0.68;;;;;;;10.15;70.33;103043.81;5095961;27;108097;-28
2023/05/27 02:51:12;;;;;;;4.30;1.05;;;;;;;10.15;69.92;103040.19;5096165;27;96949;-29
2023/05/27 02:53:38;;;;;;;3.30;1.10;;;;;;;10.11;70.29;103044.78;5096236;27;96676;-28
2023/05/27 02:56:03;;;;;;;2.95;0.98;;;;;;;10.08;69.49;103044.88;5096532;27;96792;-28
2023/05/27 02:58:29;;;;;;;2.08;0.98;;;;;;;10.09;70.22;103043.94;5077525;27;101926;-28
2023/05/27 03:00:54;;;;;;;2.15;1.05;;;;;;;10.12;69.35;103051.97;5096330;27;99618;-28
2023/05/27 03:03:20;;;;;;;1.67;0.90;;;;;;;10.04;69.44;103032.31;5095960;27;96693;-28
2023/05/27 03:05:46;;;;;;;5.03;1.00;;;;;;;10.08;69.74;103044.88;5096340;27;96779;-29
2023/05/27 03:08:11;;;;;;;6.75;1.02;;;;;;;10.04;69.15;103039.56;5095587;27;97410;-29
2023/05/27 03:10:36;;;;;;;1.67;0.98;;;;;;;9.93;70.40;103039.81;5096300;27;97208;-28
2023/05/27 03:13:02;;;;;;;3.17;1.33;;;;;;;9.95;70.27;103046.09;5095913;27;96729;-28
2023/05/27 03:15:31;;;;;;;3.00;1.13;;;;;;;9.92;70.23;103033.50;5096648;27;96828;-28
2023/05/27 03:17:56;;;;;;;2.42;0.93;;;;;;;9.89;69.26;103029.97;5077194;27;101475;-29
2023/05/27 03:20:22;;;;;;;3.88;1.20;;;;;;;9.82;69.13;103031.03;5077154;27;100856;-28
2023/05/27 03:22:47;;;;;;;5.22;1.40;;;;;;;9.83;70.48;103039.13;5095947;27;96603;-28
2023/05/27 03:25:13;;;;;;;3.67;0.90;;;;;;;9.78;69.91;103041.06;5096639;27;96472;-28
2023/05/27 03:27:40;;;;;;;4.25;1.30;;;;;;;9.75;70.96;103039.31;5077016;27;101228;-28
2023/05/27 03:30:07;;;;;;;1.90;0.82;;;;;;;9.80;70.55;103036.50;5095472;27;99200;-28
2023/05/27 03:32:32;;;;;;;1.90;0.85;;;;;;;9.70;70.46;103025.00;5076271;27;96803;-28
2023/05/27 03:34:58;;;;;;;3.30;0.98;;;;;;;9.65;70.17;103029.59;5096538;27;96792;-28
2023/05/27 03:37:23;;;;;;;1.60;0.75;;;;;;;9.71;69.97;103036.72;5099490;27;98021;-28
2023/05/27 03:39:48;;;;;;;1.33;0.70;;;;;;;9.65;70.16;103029.59;5099471;27;97825;-29
2023/05/27 03:42:14;;;;;;;4.43;0.85;;;;;;;9.73;70.35;103034.88;5099755;27;96671;-28
2023/05/27 03:44:39;;;;;;;5.00;1.80;;;;;;;9.60;70.12;103028.81;5080852;27;96587;-28
2023/05/27 03:47:05;;;;;;;3.20;1.15;;;;;;;9.56;70.56;103035.25;5099062;27;98186;-29
2023/05/27 03:49:30;;;;;;;1.42;0.88;;;;;;;9.53;70.32;103032.59;5080744;27;101053;-28
2023/05/27 03:51:56;;;;;;;1.95;0.75;;;;;;;9.53;70.86;103029.88;5099111;27;96650;-27
2023/05/27 03:54:21;;;;;;;3.95;1.00;;;;;;;9.50;71.15;103021.84;5099415;27;96696;-28
2023/05/27 03:56:47;;;;;;;3.78;0.90;;;;;;;9.51;70.69;103029.03;5098917;27;97360;-28
2023/05/27 03:59:13;;;;;;;1.88;0.60;;;;;;;9.50;70.80;103029.97;5099134;27;97463;-29
2023/05/27 04:01:39;;;;;;;2.25;1.00;;;;;;;9.45;71.50;103037.28;5080405;27;96798;-28
2023/05/27 04:04:04;;;;;;;2.80;1.10;;;;;;;9.50;71.58;103027.25;5080688;27;96944;-29
2023/05/27 04:06:31;;;;;;;3.13;0.93;;;;;;;9.49;71.33;103034.50;5080267;27;100827;-28
2023/05/27 04:08:57;;;;;;;2.58;0.80;;;;;;;9.48;71.46;103029.97;5080095;27;100902;-27
2023/05/27 04:11:26;;;;;;;3.03;0.77;;;;;;;9.47;71.32;103032.75;5099192;27;96661;-28
2023/05/27 04:13:51;;;;;;;1.73;0.88;;;;;;;9.50;71.25;103021.84;5080537;27;96806;-28
2023/05/27 04:16:17;;;;;;;2.30;0.73;;;;;;;9.49;71.54;103014.66;5098686;27;97883;-28
2023/05/27 04:18:48;;;;;;;2.47;0.95;;;;;;;9.53;71.21;103016.34;5098616;27;99017;-28
2023/05/27 04:21:15;;;;;;;5.32;1.27;;;;;;;9.54;71.43;103015.44;5079795;27;96787;-28
2023/05/27 04:23:40;;;;;;;2.15;0.90;;;;;;;9.42;71.42;103018.44;5080222;27;96916;-28
2023/05/27 04:26:06;;;;;;;5.13;1.17;;;;;;;9.47;71.47;103011.97;5098772;27;97411;-29
2023/05/27 04:28:31;;;;;;;2.13;1.17;;;;;;;9.49;71.85;103025.50;5098213;27;99306;-29
2023/05/27 04:30:57;;;;;;;2.28;1.17;;;;;;;9.48;71.62;103020.97;5098952;27;96527;-29
2023/05/27 04:33:22;;;;;;;4.25;1.25;;;;;;;9.45;71.43;103012.94;5098707;27;96823;-28
2023/05/27 04:35:48;;;;;;;2.25;0.93;;;;;;;9.44;71.02;103021.97;5097825;27;102634;-28
2023/05/27 04:38:16;;;;;;;3.55;1.15;;;;;;;9.48;71.47;103016.47;5080181;27;100784;-28
2023/05/27 04:40:42;;;;;;;3.28;1.30;;;;;;;9.47;70.94;103024.63;5079912;27;96709;-29
2023/05/27 04:43:07;;;;;;;2.28;0.63;;;;;;;9.48;71.13;103019.16;5079782;27;96919;-28
2023/05/27 04:45:34;;;;;;;1.35;0.85;;;;;;;9.49;71.37;103025.50;5097519;27;97897;-28
2023/05/27 04:48:00;;;;;;;1.85;0.77;;;;;;;9.40;71.50;103014.88;5097920;27;99515;-28
2023/05/27 04:50:26;;;;;;;3.03;0.82;;;;;;;9.50;72.93;103027.25;5098573;27;96475;-28
2023/05/27 04:52:52;;;;;;;2.92;0.85;;;;;;;9.53;72.83;103028.09;5098167;27;96911;-29
2023/05/27 04:55:18;;;;;;;2.65;0.60;;;;;;;9.54;72.66;103027.16;5079387;27;98954;-29
2023/05/27 04:57:43;;;;;;;1.42;0.70;;;;;;;9.56;72.36;103024.44;5098018;27;97925;-28
2023/05/27 05:02:35;;;;;;;1.15;0.70;;;;;;;9.52;72.47;103012.75;5098649;27;96804;-28
2023/05/27 05:05:05;;;;;;;3.90;1.13;;;;;;;9.60;71.88;103023.41;5097777;27;99009;-28
2023/05/27 05:07:31;;;;;;;3.20;0.93;;;;;;;9.60;71.87;103009.88;5097987;27;97367;-29
2023/05/27 05:09:57;;;;;;;3.40;0.80;;;;;;;9.67;71.97;103010.63;5097767;27;96464;-29
2023/05/27 05:12:23;;;;;;;4.63;0.93;;;;;;;9.67;71.92;102998.00;5079280;27;96697;-28
2023/05/27 05:14:49;;;;;;;4.57;0.95;;;;;;;9.72;71.12;103009.59;5079080;27;99016;-28
2023/05/27 05:17:14;;;;;;;4.55;1.42;;;;;;;9.72;71.52;103003.31;5098122;27;97452;-30
2023/05/27 05:19:40;;;;;;;2.40;1.10;;;;;;;9.74;70.94;102990.63;5098190;27;96920;-30
2023/05/27 05:22:05;;;;;;;4.15;0.95;;;;;;;9.81;71.66;102994.97;5097903;27;96792;-28
2023/05/27 05:24:31;;;;;;;1.77;0.77;;;;;;;9.89;71.33;103009.22;5097509;27;101095;-28
2023/05/27 05:26:56;;;;;;;2.90;0.98;;;;;;;9.86;71.46;103000.28;5079003;27;100818;-30
2023/05/27 05:29:22;;;;;;;2.13;0.85;;;;;;;9.98;72.45;102994.56;5097996;27;96580;-29
2023/05/27 05:31:47;;;;;;;3.97;1.10;;;;;;;10.07;71.31;102990.75;5097741;27;96779;-28
2023/05/27 05:34:13;;;;;;;3.10;1.10;;;;;;;10.04;71.52;102977.28;5096549;27;99297;-28
2023/05/27 05:36:38;;;;;;;3.00;0.95;;;;;;;10.12;71.16;102991.50;5097639;27;97844;-28
2023/05/27 05:39:04;;;;;;;5.03;1.15;;;;;;;10.21;70.86;102992.16;5097861;27;96429;-29
2023/05/27 05:41:29;;;;;;;2.08;0.88;;;;;;;10.25;71.07;102981.25;5079006;27;96815;-29
2023/05/27 05:43:55;;;;;;;5.40;0.98;;;;;;;10.29;70.57;102980.28;5097147;27;98751;-28
2023/05/27 05:46:20;;;;;;;1.10;0.77;;;;;;;10.38;71.36;102974.63;5097426;27;102617;-28
2023/05/27 05:48:45;;;;;;;1.20;0.60;;;;;;;10.43;70.71;102978.09;5097343;27;96741;-28
2023/05/27 05:51:11;;;;;;;3.65;1.08;;;;;;;10.52;70.54;102982.41;5097931;27;96769;-28
2023/05/27 05:53:36;;;;;;;1.85;0.70;;;;;;;10.59;70.73;102975.88;5096937;27;99301;-28
2023/05/27 05:56:02;;;;;;;3.90;0.80;;;;;;;10.70;69.61;102992.75;5096859;27;106553;-28
2023/05/27 05:58:27;;;;;;;2.15;1.00;;;;;;;10.71;70.32;102980.06;5095852;27;96588;-28
2023/05/27 06:00:53;;;;;;;5.05;1.02;;;;;;;10.70;70.33;102976.47;5097611;27;96827;-28
2023/05/27 06:03:18;;;;;;;3.33;1.33;;;;;;;10.74;69.98;102977.25;5096843;27;98902;-29
2023/05/27 06:05:43;;;;;;;8.73;1.55;;;;;;;10.90;69.31;102970.47;5097094;27;97777;-28
2023/05/27 06:08:09;;;;;;;3.28;0.98;;;;;;;11.05;69.16;102975.44;5097250;27;96684;-28
2023/05/27 06:10:34;;;;;;;1.20;0.80;;;;;;;11.14;69.02;102970.69;5097390;27;96816;-29
2023/05/27 06:13:00;;;;;;;7.82;1.27;;;;;;;11.26;69.29;102970.31;5096329;27;99174;-28
2023/05/27 06:15:26;;;;;;;2.53;1.27;;;;;;;11.36;68.54;102960.06;5096973;27;98520;-28
2023/05/27 06:17:53;;;;;;;2.90;0.90;;;;;;;11.51;68.33;102973.16;5078451;27;96707;-28
2023/05/27 06:20:18;;;;;;;4.18;1.35;;;;;;;11.52;68.06;102950.53;5097104;27;96870;-28
2023/05/27 06:22:46;;;;;;;2.83;1.25;;;;;;;11.54;68.00;102953.19;5096404;27;98311;-28
2023/05/27 06:25:11;;;;;;;2.30;0.93;;;;;;;11.55;68.13;102955.84;5096606;27;98332;-28
2023/05/27 06:27:37;;;;;;;4.68;0.82;;;;;;;11.72;68.67;102955.31;5096930;27;96615;-30
2023/05/27 06:30:03;;;;;;;4.43;1.00;;;;;;;11.81;67.37;102946.84;5078281;27;96934;-28
2023/05/27 06:32:28;;;;;;;3.80;1.17;;;;;;;11.90;67.15;102941.16;5095936;27;99398;-28
2023/05/27 06:34:53;;;;;;;5.18;1.27;;;;;;;12.06;66.66;102938.81;5096154;27;97422;-28
2023/05/27 06:37:19;;;;;;;3.40;1.15;;;;;;;12.18;66.50;102936.59;5096836;27;96578;-28
2023/05/27 06:39:44;;;;;;;1.90;0.85;;;;;;;12.22;66.65;102936.44;5097027;27;96867;-28
2023/05/27 06:42:09;;;;;;;3.70;0.82;;;;;;;12.21;67.12;102944.66;5096348;27;98415;-28
2023/05/27 06:44:35;;;;;;;3.05;1.13;;;;;;;12.18;66.90;102944.75;5096498;27;97806;-28
2023/05/27 06:47:01;;;;;;;3.08;1.17;;;;;;;12.26;66.90;102927.25;5096299;27;96761;-28
2023/05/27 06:49:27;;;;;;;4.82;1.20;;;;;;;12.45;66.36;102930.19;5096605;27;96822;-28
2023/05/27 06:51:52;;;;;;;2.95;0.82;;;;;;;12.56;66.41;102920.75;5096297;27;97481;-28
2023/05/27 06:54:17;;;;;;;1.65;1.10;;;;;;;12.61;65.88;102919.66;5096367;27;97754;-28
2023/05/27 06:56:43;;;;;;;1.20;0.82;;;;;;;12.69;66.12;102920.25;5096406;27;96638;-28
2023/05/27 06:59:08;;;;;;;3.05;1.20;;;;;;;12.82;65.71;102919.78;5096679;27;96841;-28
2023/05/27 07:01:33;;;;;;;1.45;0.60;;;;;;;12.91;64.98;102911.28;5096230;27;98839;-28
2023/05/27 07:03:59;;;;;;;4.32;1.30;;;;;;;13.14;64.62;102908.56;5096197;27;99622;-28
2023/05/27 07:06:24;;;;;;;4.20;1.35;;;;;;;13.30;64.26;102914.34;5096707;27;96596;-29
2023/05/27 07:08:49;;;;;;;3.90;1.27;;;;;;;13.36;63.91;102915.91;5096206;27;96809;-29
2023/05/27 07:11:16;;;;;;;6.28;1.42;;;;;;;13.35;64.01;102917.75;5095375;27;97467;-28
2023/05/27 07:13:41;;;;;;;2.92;1.42;;;;;;;13.45;64.02;102914.66;5095721;27;99188;-28
2023/05/27 07:16:06;;;;;;;3.42;1.05;;;;;;;13.47;63.72;102912.78;5096264;27;96657;-30
2023/05/27 07:18:32;;;;;;;7.82;1.70;;;;;;;13.55;64.33;102918.78;5096406;27;96811;-29
2023/05/27 07:20:57;;;;;;;3.17;1.25;;;;;;;13.62;63.98;102905.81;5096020;27;97883;-28
2023/05/27 07:23:22;;;;;;;4.45;0.95;;;;;;;13.76;63.19;102900.66;5095627;27;98776;-28
2023/05/27 07:25:48;;;;;;;4.88;0.90;;;;;;;13.89;63.15;102901.91;5095646;27;96726;-28
2023/05/27 07:28:13;;;;;;;8.65;1.17;;;;;;;14.11;63.06;102910.06;5096458;27;96675;-28
2023/05/27 07:30:38;;;;;;;4.75;1.25;;;;;;;14.11;62.41;102899.16;5095799;27;97923;-29
2023/05/27 07:33:04;;;;;;;6.32;1.63;;;;;;;14.24;62.41;102897.66;5095461;27;97788;-30
2023/05/27 07:35:29;;;;;;;5.43;1.30;;;;;;;14.39;61.97;102893.34;5094858;27;96645;-29
2023/05/27 07:37:54;;;;;;;2.78;1.20;;;;;;;14.61;61.43;102893.31;5095742;27;96840;-29
2023/05/27 07:40:20;;;;;;;9.13;1.55;;;;;;;14.75;61.27;102892.66;5095425;27;102779;-28
2023/05/27 07:42:45;;;;;;;8.68;1.60;;;;;;;14.93;60.97;102898.25;5095405;27;99943;-29
2023/05/27 07:45:11;;;;;;;4.07;1.35;;;;;;;14.99;60.60;102890.66;5095808;27;96494;-29
2023/05/27 07:47:36;;;;;;;3.38;1.08;;;;;;;15.12;60.01;102885.47;5076504;27;96799;-28
2023/05/27 07:50:01;;;;;;;6.72;1.23;;;;;;;15.22;59.94;102885.91;5093852;27;99005;-28
2023/05/27 07:52:27;;;;;;;4.18;1.73;;;;;;;15.34;59.96;102876.25;5094354;27;99363;-30
2023/05/27 07:54:52;;;;;;;4.47;1.50;;;;;;;15.47;60.38;102882.88;5094510;27;96713;-33
2023/05/27 07:57:17;;;;;;;5.18;1.65;;;;;;;15.57;59.61;102873.25;5094236;27;97257;-34
2023/05/27 07:59:43;;;;;;;6.93;1.52;;;;;;;15.78;59.53;102886.81;5074903;27;99833;-28
2023/05/27 08:02:09;;;;;;;2.60;1.38;;;;;;;15.78;58.86;102873.16;5094172;27;97750;-28
2023/05/27 08:04:34;;;;;;;5.70;1.73;;;;;;;15.74;58.75;102879.75;5076880;27;96617;-30
2023/05/27 08:06:59;;;;;;;5.63;1.30;;;;;;;15.82;58.84;102869.31;5095597;27;96842;-28
2023/05/27 08:09:25;;;;;;;4.00;1.48;;;;;;;16.04;58.59;102875.44;5094955;27;99633;-28
2023/05/27 08:11:50;;;;;;;5.75;1.40;;;;;;;16.14;58.29;102862.19;5095351;27;97201;-28
2023/05/27 08:14:16;;;;;;;5.57;1.90;;;;;;;16.29;58.12;102871.41;5095407;27;96802;-29
2023/05/27 08:16:42;;;;;;;5.70;1.65;;;;;;;16.43;58.16;102866.06;5077257;27;96825;-28
2023/05/27 08:19:07;;;;;;;5.50;1.85;;;;;;;16.52;57.73;102867.44;5094927;27;97482;-28
2023/05/27 08:21:32;;;;;;;3.45;1.38;;;;;;;16.44;57.66;102853.28;5096113;27;97834;-30
2023/05/27 08:23:58;;;;;;;8.68;2.13;;;;;;;16.53;57.37;102850.03;5097782;27;96566;-28
2023/05/27 08:26:23;;;;;;;5.18;1.45;;;;;;;16.72;57.25;102853.53;5098552;27;97036;-29
2023/05/27 08:28:49;;;;;;;7.18;1.88;;;;;;;16.90;56.78;102848.94;5098387;27;99644;-28
2023/05/27 08:31:14;;;;;;;7.43;1.58;;;;;;;16.91;56.35;102847.94;5098306;27;99052;-28
2023/05/27 08:33:40;;;;;;;4.57;1.50;;;;;;;17.04;56.13;102841.78;5098654;27;96502;-29
2023/05/27 08:36:06;;;;;;;3.20;1.35;;;;;;;17.09;55.73;102834.16;5098250;27;96820;-29
2023/05/27 08:38:31;;;;;;;5.97;1.75;;;;;;;17.14;55.21;102835.69;5098534;27;98530;-29
2023/05/27 08:40:58;;;;;;;4.15;1.40;;;;;;;17.22;55.75;102813.34;5098244;27;97678;-32
2023/05/27 08:43:25;;;;;;;6.50;1.70;;;;;;;17.34;55.72;102826.31;5077582;27;97102;-30
2023/05/27 08:45:50;;;;;;;6.32;2.20;;;;;;;17.37;55.48;102823.38;5077369;27;96926;-31
2023/05/27 08:48:16;;;;;;;7.03;1.35;;;;;;;17.37;54.00;102812.41;5095146;27;99277;-32
2023/05/27 08:50:41;;;;;;;3.60;1.33;;;;;;;17.38;54.77;102818.81;5095976;27;97536;-31
2023/05/27 08:53:08;;;;;;;4.10;1.38;;;;;;;17.35;54.41;102814.41;5077252;27;97138;-32
2023/05/27 08:55:34;;;;;;;6.50;1.38;;;;;;;17.60;54.20;102811.06;5077537;27;97107;-30
2023/05/27 08:58:01;;;;;;;4.82;1.60;;;;;;;17.76;54.19;102805.56;5078817;27;100875;-28
2023/05/27 09:00:27;;;;;;;8.32;1.65;;;;;;;17.73;53.91;102804.84;5079572;27;100881;-28
2023/05/27 09:02:56;;;;;;;5.18;1.63;;;;;;;17.43;53.76;102785.66;5079758;27;96595;-29
2023/05/27 09:05:22;;;;;;;6.90;2.03;;;;;;;17.69;54.21;102797.81;5080124;27;97074;-29
2023/05/27 09:07:47;;;;;;;4.25;1.63;;;;;;;18.04;54.10;102792.91;5097517;27;99088;-28
2023/05/27 09:10:13;;;;;;;5.15;2.08;;;;;;;18.16;53.95;102786.69;5098043;27;97934;-30
2023/05/27 09:12:44;;;;;;;5.68;1.50;;;;;;;18.29;52.45;102792.25;5097437;27;96516;-28
2023/05/27 09:15:10;;;;;;;7.40;2.10;;;;;;;18.39;52.76;102784.31;5079521;27;96788;-28
2023/05/27 09:17:43;;;;;;;4.65;1.55;;;;;;;18.44;53.18;102787.66;5079154;27;100776;-28
2023/05/27 09:20:10;;;;;;;3.15;1.52;;;;;;;18.50;52.30;102789.16;5097992;27;97858;-28
2023/05/27 09:22:36;;;;;;;3.22;1.27;;;;;;;18.59;52.10;102797.66;5097923;27;96552;-30
2023/05/27 09:25:02;;;;;;;6.75;1.92;;;;;;;18.57;52.50;102788.63;5098031;27;96794;-28
2023/05/27 09:27:29;;;;;;;2.80;1.40;;;;;;;18.68;51.94;102780.56;5097430;27;99651;-28
2023/05/27 09:29:56;;;;;;;5.28;1.80;;;;;;;18.64;51.05;102780.91;5079221;27;100985;-28
2023/05/27 09:32:30;;;;;;;4.78;1.65;;;;;;;18.82;51.37;102773.34;5077751;27;96736;-30
2023/05/27 09:34:56;;;;;;;5.75;1.70;;;;;;;18.94;51.24;102771.66;5078270;27;96831;-28
2023/05/27 09:37:34;;;;;;;7.50;2.13;;;;;;;19.09;50.97;102770.63;5078326;27;101280;-28
2023/05/27 09:40:10;;;;;;;6.13;2.33;;;;;;;19.15;51.00;102766.59;5097419;27;98920;-28
2023/05/27 09:42:46;;;;;;;6.70;2.10;;;;;;;19.39;50.88;102773.16;5079192;27;96622;-28
2023/05/27 09:45:16;;;;;;;12.02;2.28;;;;;;;19.60;50.45;102767.19;5079159;27;96672;-28
2023/05/27 09:47:46;;;;;;;5.53;2.47;;;;;;;19.66;50.14;102766.75;5078496;27;100829;-29
2023/05/27 09:50:14;;;;;;;5.68;1.80;;;;;;;19.60;50.18;102751.56;5078381;27;100753;-28
2023/05/27 09:52:41;;;;;;;8.50;1.83;;;;;;;19.65;49.74;102752.13;5078854;27;96715;-28
2023/05/27 09:55:12;;;;;;;4.38;1.45;;;;;;;19.73;49.65;102762.59;5079226;27;96801;-29
2023/05/27 09:57:38;;;;;;;5.93;1.63;;;;;;;19.67;48.84;102760.28;5078450;27;100956;-28
2023/05/27 10:00:15;;;;;;;6.72;2.05;;;;;;;19.85;49.91;102755.38;5078101;27;101081;-28
2023/05/27 10:02:48;;;;;;;8.23;2.47;;;;;;;19.89;49.44;102757.81;5096957;27;96489;-29
2023/05/27 10:05:15;;;;;;;7.00;2.08;;;;;;;20.14;47.61;102764.28;5097336;27;96832;-30
2023/05/27 10:07:43;;;;;;;5.75;1.88;;;;;;;19.94;48.07;102758.34;5078201;27;100932;-28
2023/05/27 10:10:16;;;;;;;8.48;1.88;;;;;;;20.17;48.18;102750.34;5078287;27;100830;-28
2023/05/27 10:12:44;;;;;;;6.50;1.95;;;;;;;20.28;47.69;102744.91;5078567;27;96685;-28
2023/05/27 10:15:21;;;;;;;4.55;1.88;;;;;;;20.48;48.38;102742.59;5061213;27;96856;-28
2023/05/27 10:17:47;;;;;;;7.60;1.83;;;;;;;20.58;47.10;102739.06;5078174;27;101671;-28
2023/05/27 10:20:37;;;;;;;5.32;1.80;;;;;;;20.37;47.10;102726.84;5078317;27;101069;-28
2023/05/27 10:23:28;;;;;;;7.13;2.03;;;;;;;20.44;47.21;102739.19;5097113;27;96609;-29
2023/05/27 10:26:08;;;;;;;4.57;1.83;;;;;;;20.73;48.00;102734.28;5097244;27;96547;-29
2023/05/27 10:28:41;;;;;;;6.95;1.98;;;;;;;20.63;47.18;102724.09;5096175;27;97494;-29
2023/05/27 10:31:07;;;;;;;6.65;1.88;;;;;;;20.74;46.84;102714.03;5096324;27;97861;-28
2023/05/27 10:33:37;;;;;;;7.30;2.08;;;;;;;20.84;46.52;102700.44;5077970;27;97021;-28
2023/05/27 10:36:08;;;;;;;8.35;2.20;;;;;;;21.04;46.15;102715.44;5077937;27;96913;-29
2023/05/27 10:38:34;;;;;;;10.30;2.08;;;;;;;21.20;46.65;102718.78;5077773;27;98852;-28
2023/05/27 10:41:01;;;;;;;5.72;1.80;;;;;;;21.34;45.25;102709.47;5077800;27;101807;-28
2023/05/27 10:43:33;;;;;;;6.95;1.80;;;;;;;21.23;43.42;102695.63;5077698;27;96671;-28
2023/05/27 10:46:07;;;;;;;9.05;2.30;;;;;;;21.40;44.98;102699.84;5096927;27;96821;-28
2023/05/27 10:48:37;;;;;;;5.03;1.92;;;;;;;21.42;45.36;102695.09;5077688;27;100873;-27
2023/05/27 10:51:02;;;;;;;5.28;1.63;;;;;;;21.54;44.31;102694.13;5077649;27;98849;-28
2023/05/27 10:53:28;;;;;;;4.10;1.77;;;;;;;21.49;43.17;102687.25;5095862;27;96697;-29
2023/05/27 10:55:58;;;;;;;8.55;1.83;;;;;;;21.49;43.02;102682.59;5078071;27;96957;-28
2023/05/27 10:58:23;;;;;;;6.28;1.90;;;;;;;21.38;43.97;102664.13;5077271;27;101520;-28
2023/05/27 11:00:51;;;;;;;6.28;1.98;;;;;;;21.70;44.11;102670.88;5096140;27;97771;-28
2023/05/27 11:03:25;;;;;;;5.95;1.67;;;;;;;21.76;44.22;102663.00;5077720;27;96712;-29
2023/05/27 11:06:04;;;;;;;5.80;2.17;;;;;;;21.94;42.75;102663.38;5096552;27;96548;-28
2023/05/27 11:08:31;;;;;;;8.00;2.13;;;;;;;21.78;41.68;102662.84;5095862;27;99322;-33
2023/05/27 11:11:06;;;;;;;9.00;2.15;;;;;;;21.82;41.54;102667.13;5077831;27;101631;-28
2023/05/27 11:13:33;;;;;;;4.38;1.35;;;;;;;21.85;42.61;102658.59;5077327;27;96698;-28
2023/05/27 11:16:01;;;;;;;8.00;2.40;;;;;;;21.94;42.33;102654.22;5077493;27;96862;-29
2023/05/27 11:18:34;;;;;;;5.70;2.40;;;;;;;21.70;42.21;102643.28;5076834;27;101104;-29
2023/05/27 11:21:01;;;;;;;6.95;2.03;;;;;;;21.82;42.86;102634.00;5077218;27;101183;-33
2023/05/27 11:23:43;;;;;;;6.20;1.98;;;;;;;22.02;42.42;102637.91;5096134;27;96601;-28
2023/05/27 11:26:14;;;;;;;;;;;;;;;22.03;39.97;102634.16;5077909;27;96950;-28
2023/05/27 11:28:51;;;;;;;8.18;2.28;;;;;;;22.04;40.91;102635.91;5095896;27;98166;-28